Pipersville, Pennsylvania
Current Conditions -  °F | °C
As of 12:54 AM on Wednesday 28 Jan 2015 (Local Time) from KDYL Reporting Station
Clear Clear  
Wind Chill:   Ceiling: Unl
Heat Index: 15°   Visibility: 10mi
Dew Point:   Wind: 12mph
Humidity: 64%   Direction: 330°NNW
Pressure: 29.89"   Gusts: 20mph
Location:  40.38°N, 75.14°W
Report Text: KDYL 280554Z AUTO 33010G17KT 10SM CLR M09/M15 A2989 RMK AO2 SLP132 T10941150 11044 21094 53013
Loading
Personal Weather Stations






























Interactive Weather Map New forecast layout! Learn more

10-Day Weather Forecast

Advertisements
Track Severe Weather on mobile